createdAt,value
2022-09-11T00:00:52.795Z,2.35
2022-09-11T00:05:55.263Z,3.15
2022-09-11T00:11:04.289Z,3.53
2022-09-11T00:16:08.340Z,2.55
2022-09-11T00:21:10.986Z,3.03
2022-09-11T00:26:14.802Z,2.20
2022-09-11T00:31:22.211Z,3.15
2022-09-11T00:36:27.861Z,2.35
2022-09-11T00:41:36.290Z,2.83
2022-09-11T00:46:43.053Z,3.72
2022-09-11T00:51:49.057Z,4.05
2022-09-11T00:56:54.210Z,3.35
2022-09-11T01:01:56.892Z,4.03
2022-09-11T01:07:01.088Z,3.15
2022-09-11T01:12:11.084Z,3.00
2022-09-11T01:17:22.581Z,3.38
2022-09-11T01:22:46.370Z,2.58
2022-09-11T01:27:51.886Z,4.80
2022-09-11T01:33:11.230Z,3.28
2022-09-11T01:38:17.962Z,2.35
2022-09-11T01:43:26.999Z,2.97
2022-09-11T01:48:34.198Z,2.63
2022-09-11T01:53:39.974Z,2.97
2022-09-11T01:58:47.905Z,3.30
2022-09-11T02:03:55.055Z,2.60
2022-09-11T02:09:01.500Z,4.22
2022-09-11T02:14:10.628Z,2.70
2022-09-11T02:19:15.809Z,2.83
2022-09-11T02:24:19.906Z,4.97
2022-09-11T02:29:24.405Z,2.90
2022-09-11T02:34:29.782Z,4.32
2022-09-11T02:39:50.460Z,5.28
2022-09-11T02:45:04.545Z,4.68
2022-09-11T02:50:15.369Z,4.15
2022-09-11T02:55:25.283Z,3.40
2022-09-11T03:00:29.502Z,4.82
2022-09-11T03:05:32.144Z,3.53
2022-09-11T03:10:34.945Z,3.22
2022-09-11T03:15:38.751Z,3.10
2022-09-11T03:20:41.310Z,5.05
2022-09-11T03:25:43.779Z,4.03
2022-09-11T03:30:49.184Z,5.18
2022-09-11T03:35:51.805Z,3.90
2022-09-11T03:40:55.030Z,3.17
2022-09-11T03:46:00.586Z,4.70
2022-09-11T03:51:05.680Z,5.72
2022-09-11T03:56:08.311Z,4.00
2022-09-11T04:01:14.222Z,3.38
2022-09-11T04:06:17.162Z,5.53
2022-09-11T04:11:19.722Z,5.75
2022-09-11T04:16:23.733Z,4.38
2022-09-11T04:21:27.654Z,3.80
2022-09-11T04:26:33.033Z,5.55
2022-09-11T04:31:38.380Z,4.40
2022-09-11T04:36:40.908Z,4.57
2022-09-11T04:41:44.301Z,4.55
2022-09-11T04:46:48.138Z,3.40
2022-09-11T04:51:50.815Z,6.32
2022-09-11T04:56:54.747Z,6.00
2022-09-11T05:02:10.477Z,4.57
2022-09-11T05:07:14.486Z,5.25
2022-09-11T05:12:17.718Z,4.38
2022-09-11T05:17:21.522Z,3.88
2022-09-11T05:22:24.932Z,4.43
2022-09-11T05:27:27.337Z,6.10
2022-09-11T05:32:31.142Z,5.72
2022-09-11T05:37:33.623Z,6.10
2022-09-11T05:42:36.050Z,5.07
2022-09-11T05:47:40.148Z,6.38
2022-09-11T05:52:42.620Z,8.63
2022-09-11T05:57:45.086Z,6.18
2022-09-11T06:02:49.003Z,6.80
2022-09-11T06:07:51.621Z,6.68
2022-09-11T06:12:54.075Z,7.20
2022-09-11T06:17:58.105Z,10.48
2022-09-11T06:23:00.882Z,11.90
2022-09-11T06:28:04.175Z,14.32
2022-09-11T06:33:08.210Z,15.75
2022-09-11T06:38:10.834Z,21.40
2022-09-11T06:43:14.828Z,19.08
2022-09-11T06:48:19.831Z,23.30
2022-09-11T06:53:22.238Z,18.85
2022-09-11T06:58:24.659Z,16.45
2022-09-11T07:03:29.783Z,14.90
2022-09-11T07:08:32.636Z,19.58
2022-09-11T07:13:37.547Z,18.33
2022-09-11T07:18:43.178Z,19.48
2022-09-11T07:23:49.737Z,16.85
2022-09-11T07:28:52.691Z,13.30
2022-09-11T07:33:57.277Z,11.98
2022-09-11T07:39:00.407Z,15.38
2022-09-11T07:44:03.640Z,12.73
2022-09-11T07:49:10.019Z,16.50
2022-09-11T07:54:12.892Z,12.85
2022-09-11T07:59:16.272Z,14.82
2022-09-11T08:04:20.134Z,15.20
2022-09-11T08:09:22.575Z,21.77
2022-09-11T08:14:26.734Z,14.25
2022-09-11T08:19:30.584Z,16.45
2022-09-11T08:24:33.834Z,17.92
2022-09-11T08:29:36.330Z,17.67
2022-09-11T08:34:40.167Z,16.02
2022-09-11T08:39:42.615Z,17.65
2022-09-11T08:44:50.207Z,15.35
2022-09-11T08:49:59.439Z,14.10
2022-09-11T08:55:02.219Z,15.48
2022-09-11T09:00:17.175Z,14.40
2022-09-11T09:05:31.511Z,17.45
2022-09-11T09:15:55.356Z,19.60
2022-09-11T09:21:03.494Z,19.38
2022-09-11T09:26:08.522Z,15.68
2022-09-11T09:31:14.946Z,22.63
2022-09-11T09:36:22.408Z,25.38
2022-09-11T09:41:49.673Z,17.95
2022-09-11T09:46:54.207Z,19.30
2022-09-11T09:52:04.210Z,20.85
2022-09-11T09:57:10.388Z,28.58
2022-09-11T10:02:13.720Z,28.63
2022-09-11T10:07:24.392Z,23.38
2022-09-11T10:12:31.437Z,20.10
2022-09-11T10:17:38.385Z,17.55
2022-09-11T10:22:43.341Z,15.38
2022-09-11T10:27:56.264Z,12.55
2022-09-11T10:33:03.490Z,14.77
2022-09-11T10:38:19.500Z,11.98
2022-09-11T10:43:25.755Z,8.10
2022-09-11T10:48:28.514Z,10.95
2022-09-11T10:53:41.177Z,9.32
2022-09-11T10:58:47.297Z,8.35
2022-09-11T11:03:50.123Z,6.60
2022-09-11T11:09:06.257Z,6.50
2022-09-11T11:14:23.982Z,5.28
2022-09-11T11:19:41.459Z,4.70
2022-09-11T11:25:00.076Z,5.80
2022-09-11T11:30:10.788Z,6.43
2022-09-11T11:35:21.795Z,6.60
2022-09-11T11:40:29.992Z,5.40
2022-09-11T11:45:37.874Z,5.07
2022-09-11T11:50:43.553Z,4.25
2022-09-11T11:55:56.991Z,3.47
2022-09-11T12:01:03.163Z,3.50
2022-09-11T12:06:07.845Z,3.10
2022-09-11T12:11:13.758Z,3.53
2022-09-11T12:16:21.224Z,2.78
2022-09-11T12:21:41.481Z,4.00
2022-09-11T12:26:45.970Z,3.05
2022-09-11T12:32:19.336Z,5.90
2022-09-11T12:37:28.014Z,6.30
2022-09-11T12:43:16.981Z,6.10
2022-09-11T12:48:23.819Z,6.10
2022-09-11T12:53:31.254Z,5.53
2022-09-11T12:58:38.842Z,7.97
2022-09-11T13:03:51.577Z,10.88
2022-09-11T13:08:59.807Z,7.43
2022-09-11T13:14:04.189Z,6.90
2022-09-11T13:19:13.763Z,9.77
2022-09-11T13:24:25.324Z,8.10
2022-09-11T13:29:31.546Z,6.47
2022-09-11T13:34:36.472Z,8.52
2022-09-11T13:39:43.044Z,8.55
2022-09-11T13:44:50.060Z,9.43
2022-09-11T13:49:56.450Z,11.27
2022-09-11T13:55:03.420Z,7.50
2022-09-11T14:00:41.095Z,6.25
2022-09-11T14:05:50.524Z,5.95
2022-09-11T14:10:56.301Z,8.13
2022-09-11T14:16:04.238Z,5.68
2022-09-11T14:21:14.296Z,3.88
2022-09-11T14:26:18.586Z,4.30
2022-09-11T14:31:37.478Z,3.17
2022-09-11T14:36:44.242Z,3.22
2022-09-11T14:41:46.965Z,3.00
2022-09-11T14:46:50.929Z,5.38
2022-09-11T14:51:58.254Z,5.82
2022-09-11T14:57:01.200Z,2.50
2022-09-11T15:02:05.846Z,4.55
2022-09-11T15:07:11.900Z,4.32
2022-09-11T15:12:15.622Z,3.85
2022-09-11T15:22:23.275Z,2.55
2022-09-11T15:27:25.974Z,3.10
2022-09-11T15:32:31.312Z,5.15
2022-09-11T15:37:33.843Z,6.68
2022-09-11T15:42:39.644Z,2.63
2022-09-11T15:47:44.410Z,3.33
2022-09-11T15:52:47.052Z,7.95
2022-09-11T15:57:49.902Z,2.55
2022-09-11T16:02:53.876Z,2.45
2022-09-11T16:13:01.899Z,2.70
2022-09-11T16:18:09.568Z,3.22
2022-09-11T16:23:12.920Z,3.95
2022-09-11T16:28:15.476Z,3.70
2022-09-11T16:33:19.400Z,3.15
2022-09-11T16:38:22.424Z,3.75
2022-09-11T16:43:25.002Z,3.00
2022-09-11T16:48:29.842Z,1.73
2022-09-11T16:53:34.328Z,2.53
2022-09-11T16:58:37.227Z,2.22
2022-09-11T17:03:42.255Z,3.70
2022-09-11T17:08:45.010Z,2.83
2022-09-11T17:13:50.764Z,3.35
2022-09-11T17:18:58.168Z,2.05
2022-09-11T17:24:00.958Z,4.30
2022-09-11T17:29:05.421Z,2.75
2022-09-11T17:34:09.770Z,3.75
2022-09-11T17:39:14.100Z,3.00
2022-09-11T17:44:16.869Z,3.50
2022-09-11T17:49:22.830Z,3.70
2022-09-11T17:54:27.266Z,2.75
2022-09-11T17:59:29.791Z,2.88
2022-09-11T18:04:33.578Z,3.25
2022-09-11T18:09:37.594Z,3.80
2022-09-11T18:14:44.216Z,4.53
2022-09-11T18:19:48.906Z,3.45
2022-09-11T18:24:51.505Z,5.65
2022-09-11T18:29:54.547Z,6.10
2022-09-11T18:35:00.142Z,6.00
2022-09-11T18:40:03.445Z,5.40
2022-09-11T18:45:08.621Z,5.68
2022-09-11T18:50:12.455Z,5.45
2022-09-11T18:55:15.792Z,5.85
2022-09-11T19:00:20.605Z,5.88
2022-09-11T19:05:26.302Z,6.78
2022-09-11T19:10:29.794Z,6.25
2022-09-11T19:15:32.324Z,8.53
2022-09-11T19:20:36.167Z,9.48
2022-09-11T19:25:39.262Z,6.10
2022-09-11T19:30:43.212Z,7.57
2022-09-11T19:35:55.220Z,6.95
2022-09-11T19:41:00.270Z,6.60
2022-09-11T19:46:03.665Z,6.63
2022-09-11T19:51:10.152Z,8.20
2022-09-11T19:56:13.497Z,7.50
2022-09-11T20:01:17.573Z,6.53
2022-09-11T20:06:24.348Z,6.45
2022-09-11T20:11:28.205Z,6.53
2022-09-11T20:16:31.549Z,6.72
2022-09-11T20:21:36.234Z,7.88
2022-09-11T20:26:38.919Z,9.48
2022-09-11T20:31:47.481Z,9.00
2022-09-11T20:36:52.275Z,9.18
2022-09-11T20:41:54.907Z,10.15
2022-09-11T20:46:57.618Z,8.98
2022-09-11T20:52:01.559Z,9.50
2022-09-11T20:57:04.206Z,8.60
2022-09-11T21:02:06.938Z,12.32
2022-09-11T21:07:11.501Z,9.43
2022-09-11T21:12:14.285Z,10.05
2022-09-11T21:17:18.132Z,9.55
2022-09-11T21:22:21.922Z,8.65
2022-09-11T21:27:24.355Z,11.52
2022-09-11T21:32:26.836Z,9.80
2022-09-11T21:37:30.624Z,10.43
2022-09-11T21:42:33.085Z,10.65
2022-09-11T21:47:35.666Z,11.05
2022-09-11T21:52:39.422Z,9.35
2022-09-11T21:57:41.971Z,11.50
2022-09-11T22:02:44.478Z,11.27
2022-09-11T22:07:48.851Z,10.35
2022-09-11T22:17:53.764Z,11.15
2022-09-11T22:22:58.805Z,11.35
2022-09-11T22:28:01.262Z,10.98
2022-09-11T22:33:03.732Z,13.07
2022-09-11T22:38:07.760Z,12.00
2022-09-11T22:43:10.329Z,15.07
2022-09-11T22:48:12.852Z,11.23
2022-09-11T22:53:18.091Z,12.88
2022-09-11T22:58:21.395Z,11.35
2022-09-11T23:03:24.675Z,10.52
2022-09-11T23:08:38.390Z,13.55
2022-09-11T23:18:45.260Z,12.45
2022-09-11T23:23:54.483Z,14.25
2022-09-11T23:28:59.861Z,13.35
2022-09-11T23:34:04.292Z,14.73
2022-09-11T23:44:11.233Z,16.35
2022-09-11T23:49:15.375Z,14.38
2022-09-11T23:54:19.379Z,14.93
2022-09-11T23:59:22.102Z,15.55
